N1764T KBGR-CYQI
Flight info
| Callsign | N1764T |
|---|---|
| Flight time | N/A |
| Altitude | 7500 |
| Route | CCN2 |
| Aircraft | P28A/L-SDFG/C |
Departure
| Time | 2026-05-05 16:37 |
|---|---|
| Airport | Bangor International Airport (KBGR) |
Arrival
| Time | N/A |
|---|---|
| Airport | Yarmouth Airport (CYQI) |
| Time | Latitude | Longitude | Altitude | Speed | Heading |
|---|---|---|---|---|---|
| 2026-05-05 16:14 | 44.80310 | -68.81217 | 163 ft | 0 kts | 79° |
| 2026-05-05 16:23 | 44.80309 | -68.81208 | 163 ft | 2 kts | 114° |
| 2026-05-05 16:24 | 44.80278 | -68.81191 | 163 ft | 0 kts | 214° |
| 2026-05-05 16:24 | 44.80268 | -68.81215 | 163 ft | 4 kts | 246° |
| 2026-05-05 16:24 | 44.80267 | -68.81216 | 163 ft | 0 kts | 246° |
| 2026-05-05 16:25 | 44.80267 | -68.81243 | 163 ft | 6 kts | 290° |
| 2026-05-05 16:26 | 44.80333 | -68.81440 | 164 ft | 16 kts | 290° |
| 2026-05-05 16:26 | 44.80338 | -68.81624 | 165 ft | 11 kts | 316° |
| 2026-05-05 16:27 | 44.80397 | -68.81710 | 166 ft | 14 kts | 314° |
| 2026-05-05 16:27 | 44.80458 | -68.81790 | 167 ft | 1 kts | 275° |
| 2026-05-05 16:27 | 44.80474 | -68.81819 | 167 ft | 8 kts | 314° |
| 2026-05-05 16:27 | 44.80534 | -68.81906 | 168 ft | 15 kts | 313° |
| 2026-05-05 16:28 | 44.80618 | -68.82028 | 169 ft | 19 kts | 314° |
| 2026-05-05 16:28 | 44.80715 | -68.82169 | 170 ft | 21 kts | 313° |
| 2026-05-05 16:28 | 44.80822 | -68.82322 | 172 ft | 23 kts | 313° |
| 2026-05-05 16:28 | 44.80936 | -68.82487 | 173 ft | 24 kts | 315° |
| 2026-05-05 16:29 | 44.81055 | -68.82660 | 175 ft | 25 kts | 313° |
| 2026-05-05 16:29 | 44.81175 | -68.82833 | 176 ft | 25 kts | 314° |
| 2026-05-05 16:29 | 44.81295 | -68.83007 | 178 ft | 25 kts | 315° |
| 2026-05-05 16:29 | 44.81415 | -68.83182 | 180 ft | 25 kts | 314° |
| 2026-05-05 16:30 | 44.81535 | -68.83355 | 181 ft | 25 kts | 314° |
| 2026-05-05 16:30 | 44.81656 | -68.83534 | 183 ft | 25 kts | 314° |
| 2026-05-05 16:30 | 44.81777 | -68.83704 | 188 ft | 25 kts | 314° |
| 2026-05-05 16:30 | 44.81898 | -68.83880 | 186 ft | 25 kts | 313° |
| 2026-05-05 16:31 | 44.82002 | -68.84029 | 194 ft | 15 kts | 309° |
| 2026-05-05 16:31 | 44.82013 | -68.84076 | 188 ft | 0 kts | 163° |
| 2026-05-05 16:34 | 44.82011 | -68.84076 | 188 ft | 2 kts | 180° |
| 2026-05-05 16:34 | 44.82009 | -68.84119 | 188 ft | 7 kts | 251° |
| 2026-05-05 16:34 | 44.81958 | -68.84198 | 196 ft | 15 kts | 224° |
| 2026-05-05 16:35 | 44.81914 | -68.84256 | 188 ft | 0 kts | 219° |
| 2026-05-05 16:35 | 44.81898 | -68.84276 | 193 ft | 7 kts | 220° |
| 2026-05-05 16:35 | 44.81831 | -68.84306 | 188 ft | 13 kts | 191° |
| 2026-05-05 16:36 | 44.81738 | -68.84245 | 187 ft | 27 kts | 133° |
| 2026-05-05 16:36 | 44.81486 | -68.83895 | 235 ft | 65 kts | 147° |
| 2026-05-05 16:36 | 44.81153 | -68.83441 | 469 ft | 68 kts | 148° |
| 2026-05-05 16:36 | 44.80828 | -68.82935 | 740 ft | 71 kts | 141° |
| 2026-05-05 16:37 | 44.80494 | -68.82469 | 1027 ft | 65 kts | 144° |
| 2026-05-05 16:37 | 44.80169 | -68.81988 | 1244 ft | 70 kts | 143° |
| 2026-05-05 16:37 | 44.79854 | -68.81477 | 1469 ft | 70 kts | 140° |
| 2026-05-05 16:37 | 44.79540 | -68.80938 | 1683 ft | 74 kts | 139° |
| 2026-05-05 16:38 | 44.79260 | -68.80317 | 1954 ft | 77 kts | 127° |
| 2026-05-05 16:38 | 44.79118 | -68.79582 | 2181 ft | 86 kts | 109° |
| 2026-05-05 16:38 | 44.79098 | -68.78698 | 2376 ft | 91 kts | 104° |
| 2026-05-05 16:38 | 44.79132 | -68.77790 | 2593 ft | 92 kts | 104° |
| 2026-05-05 16:39 | 44.79156 | -68.76873 | 2764 ft | 98 kts | 102° |
| 2026-05-05 16:39 | 44.79238 | -68.75912 | 2999 ft | 103 kts | 99° |
| 2026-05-05 16:39 | 44.79372 | -68.74929 | 3239 ft | 102 kts | 95° |
| 2026-05-05 16:39 | 44.79528 | -68.73957 | 3466 ft | 98 kts | 92° |
| 2026-05-05 16:40 | 44.79710 | -68.72986 | 3601 ft | 106 kts | 89° |
| 2026-05-05 16:40 | 44.79893 | -68.72016 | 3831 ft | 104 kts | 88° |
| 2026-05-05 16:40 | 44.80090 | -68.71014 | 3985 ft | 106 kts | 89° |
| 2026-05-05 16:40 | 44.80282 | -68.70005 | 4168 ft | 107 kts | 91° |
| 2026-05-05 16:41 | 44.80468 | -68.68940 | 4310 ft | 113 kts | 90° |
| 2026-05-05 16:41 | 44.80666 | -68.67891 | 4548 ft | 112 kts | 89° |
| 2026-05-05 16:41 | 44.80876 | -68.66866 | 4791 ft | 110 kts | 87° |
| 2026-05-05 16:41 | 44.81110 | -68.65849 | 5005 ft | 108 kts | 85° |
| 2026-05-05 16:42 | 44.81357 | -68.64833 | 5176 ft | 112 kts | 82° |
| 2026-05-05 16:42 | 44.81597 | -68.63784 | 5312 ft | 114 kts | 92° |
| 2026-05-05 16:42 | 44.81794 | -68.62701 | 5492 ft | 116 kts | 90° |
| 2026-05-05 16:42 | 44.81987 | -68.61595 | 5640 ft | 116 kts | 91° |
| 2026-05-05 16:43 | 44.82174 | -68.60494 | 5827 ft | 114 kts | 91° |
| 2026-05-05 16:43 | 44.82368 | -68.59397 | 5958 ft | 118 kts | 91° |
| 2026-05-05 16:43 | 44.82569 | -68.58306 | 6136 ft | 115 kts | 91° |
| 2026-05-05 16:43 | 44.82758 | -68.57195 | 6268 ft | 116 kts | 92° |
| 2026-05-05 16:44 | 44.82922 | -68.56090 | 6412 ft | 118 kts | 93° |
| 2026-05-05 16:44 | 44.83100 | -68.54977 | 6578 ft | 116 kts | 91° |
| 2026-05-05 16:44 | 44.83288 | -68.53858 | 6712 ft | 116 kts | 91° |
| 2026-05-05 16:44 | 44.83463 | -68.52744 | 6846 ft | 118 kts | 93° |
| 2026-05-05 16:45 | 44.83635 | -68.51618 | 6988 ft | 117 kts | 92° |
| 2026-05-05 16:45 | 44.83810 | -68.50493 | 7109 ft | 118 kts | 92° |
| 2026-05-05 16:45 | 44.83993 | -68.49353 | 7276 ft | 117 kts | 90° |
| 2026-05-05 16:45 | 44.84184 | -68.48245 | 7416 ft | 118 kts | 89° |
| 2026-05-05 16:46 | 44.84373 | -68.47085 | 7453 ft | 128 kts | 90° |
| 2026-05-05 16:46 | 44.84554 | -68.45809 | 7443 ft | 135 kts | 91° |
| 2026-05-05 16:46 | 44.84696 | -68.44492 | 7448 ft | 135 kts | 98° |
| 2026-05-05 16:46 | 44.84695 | -68.43204 | 7487 ft | 131 kts | 107° |
| 2026-05-05 16:47 | 44.84651 | -68.41899 | 7479 ft | 135 kts | 107° |
| 2026-05-05 16:47 | 44.84614 | -68.40566 | 7501 ft | 137 kts | 107° |
| 2026-05-05 16:47 | 44.84570 | -68.39228 | 7522 ft | 138 kts | 105° |
| 2026-05-05 16:47 | 44.84534 | -68.37863 | 7515 ft | 140 kts | 105° |
| 2026-05-05 16:48 | 44.84513 | -68.36954 | 7524 ft | 140 kts | 105° |
| 2026-05-05 16:48 | 44.84488 | -68.35589 | 7527 ft | 139 kts | 104° |
| 2026-05-05 16:48 | 44.84463 | -68.34232 | 7537 ft | 138 kts | 105° |
| 2026-05-05 16:48 | 44.84441 | -68.32876 | 7538 ft | 138 kts | 104° |
| 2026-05-05 16:49 | 44.84419 | -68.31524 | 7535 ft | 137 kts | 104° |
| 2026-05-05 16:49 | 44.84403 | -68.30182 | 7530 ft | 136 kts | 104° |
| 2026-05-05 16:49 | 44.84392 | -68.28853 | 7537 ft | 135 kts | 104° |
| 2026-05-05 16:49 | 44.84381 | -68.27544 | 7535 ft | 135 kts | 104° |
| 2026-05-05 16:50 | 44.84368 | -68.26225 | 7533 ft | 133 kts | 104° |
| 2026-05-05 16:50 | 44.84349 | -68.24919 | 7535 ft | 133 kts | 104° |
| 2026-05-05 16:50 | 44.84332 | -68.23614 | 7539 ft | 134 kts | 104° |
| 2026-05-05 16:50 | 44.84318 | -68.22309 | 7537 ft | 133 kts | 104° |
| 2026-05-05 16:51 | 44.84300 | -68.21003 | 7542 ft | 134 kts | 104° |
| 2026-05-05 16:51 | 44.84282 | -68.19686 | 7546 ft | 135 kts | 104° |
| 2026-05-05 16:51 | 44.84265 | -68.18356 | 7544 ft | 136 kts | 104° |
| 2026-05-05 16:51 | 44.84252 | -68.17020 | 7545 ft | 136 kts | 104° |
| 2026-05-05 16:52 | 44.84239 | -68.15680 | 7542 ft | 137 kts | 104° |
| 2026-05-05 16:52 | 44.84222 | -68.14339 | 7536 ft | 137 kts | 104° |
| 2026-05-05 16:52 | 44.84212 | -68.13007 | 7533 ft | 135 kts | 104° |
| 2026-05-05 16:52 | 44.84202 | -68.11681 | 7537 ft | 135 kts | 104° |
| 2026-05-05 16:53 | 44.84191 | -68.10356 | 7541 ft | 135 kts | 104° |
| 2026-05-05 16:53 | 44.84182 | -68.09027 | 7540 ft | 135 kts | 104° |
| 2026-05-05 16:53 | 44.84165 | -68.07700 | 7539 ft | 136 kts | 104° |
| 2026-05-05 16:53 | 44.84145 | -68.06366 | 7540 ft | 136 kts | 104° |
| 2026-05-05 16:54 | 44.84124 | -68.05039 | 7536 ft | 135 kts | 104° |
| 2026-05-05 16:54 | 44.84102 | -68.03730 | 7541 ft | 136 kts | 104° |
| 2026-05-05 16:54 | 44.84081 | -68.02405 | 7506 ft | 133 kts | 104° |
| 2026-05-05 16:54 | 44.84067 | -68.01107 | 7537 ft | 132 kts | 104° |
| 2026-05-05 16:55 | 44.84055 | -67.99812 | 7542 ft | 132 kts | 104° |
| 2026-05-05 16:55 | 44.84038 | -67.98517 | 7543 ft | 132 kts | 104° |
| 2026-05-05 16:55 | 44.84018 | -67.97222 | 7542 ft | 132 kts | 104° |
| 2026-05-05 16:55 | 44.83997 | -67.95931 | 7543 ft | 132 kts | 104° |
| 2026-05-05 16:56 | 44.83975 | -67.94633 | 7541 ft | 133 kts | 104° |
| 2026-05-05 16:56 | 44.83953 | -67.93335 | 7540 ft | 133 kts | 104° |
| 2026-05-05 16:56 | 44.83929 | -67.92031 | 7538 ft | 133 kts | 105° |
| 2026-05-05 16:56 | 44.83906 | -67.90732 | 7535 ft | 133 kts | 104° |
| 2026-05-05 16:57 | 44.83884 | -67.89433 | 7539 ft | 133 kts | 104° |
| 2026-05-05 16:57 | 44.83863 | -67.88131 | 7536 ft | 133 kts | 104° |
| 2026-05-05 16:57 | 44.83842 | -67.86827 | 7547 ft | 133 kts | 104° |
| 2026-05-05 16:57 | 44.83819 | -67.85511 | 7542 ft | 134 kts | 104° |
| 2026-05-05 16:58 | 44.83795 | -67.84200 | 7535 ft | 134 kts | 104° |
| 2026-05-05 16:58 | 44.83774 | -67.82896 | 7526 ft | 132 kts | 104° |
| 2026-05-05 16:58 | 44.83754 | -67.81620 | 7542 ft | 132 kts | 104° |
| 2026-05-05 16:58 | 44.83731 | -67.80315 | 7548 ft | 134 kts | 104° |
| 2026-05-05 16:59 | 44.83704 | -67.78999 | 7555 ft | 135 kts | 104° |
| 2026-05-05 16:59 | 44.83678 | -67.77679 | 7545 ft | 134 kts | 104° |
| 2026-05-05 16:59 | 44.83650 | -67.76364 | 7546 ft | 134 kts | 104° |
| 2026-05-05 16:59 | 44.83621 | -67.75053 | 7546 ft | 134 kts | 104° |
| 2026-05-05 17:00 | 44.83590 | -67.73739 | 7546 ft | 134 kts | 104° |
| 2026-05-05 17:00 | 44.83560 | -67.72426 | 7546 ft | 134 kts | 104° |
| 2026-05-05 17:00 | 44.83526 | -67.71116 | 7546 ft | 134 kts | 104° |
| 2026-05-05 17:00 | 44.83492 | -67.69805 | 7553 ft | 134 kts | 104° |
| 2026-05-05 17:01 | 44.83452 | -67.68490 | 7548 ft | 134 kts | 104° |
| 2026-05-05 17:01 | 44.83413 | -67.67182 | 7544 ft | 134 kts | 104° |
| 2026-05-05 17:01 | 44.83382 | -67.65870 | 7553 ft | 134 kts | 104° |
| 2026-05-05 17:01 | 44.83352 | -67.64553 | 7552 ft | 135 kts | 104° |
| 2026-05-05 17:02 | 44.83324 | -67.63237 | 7548 ft | 134 kts | 104° |
| 2026-05-05 17:02 | 44.83298 | -67.61924 | 7546 ft | 134 kts | 104° |
| 2026-05-05 17:02 | 44.83273 | -67.60616 | 7544 ft | 133 kts | 104° |
| 2026-05-05 17:02 | 44.83248 | -67.59310 | 7546 ft | 133 kts | 104° |
| 2026-05-05 17:03 | 44.83225 | -67.58012 | 7549 ft | 134 kts | 104° |
| 2026-05-05 17:03 | 44.83195 | -67.56700 | 7556 ft | 135 kts | 104° |
| 2026-05-05 17:03 | 44.83159 | -67.55381 | 7549 ft | 135 kts | 104° |
| 2026-05-05 17:03 | 44.83123 | -67.54070 | 7545 ft | 134 kts | 104° |
| 2026-05-05 17:04 | 44.83090 | -67.52757 | 7550 ft | 134 kts | 104° |
| 2026-05-05 17:04 | 44.83057 | -67.51437 | 7550 ft | 135 kts | 104° |
| 2026-05-05 17:04 | 44.83023 | -67.50113 | 7542 ft | 135 kts | 104° |
| 2026-05-05 17:04 | 44.82988 | -67.48787 | 7524 ft | 135 kts | 104° |
| 2026-05-05 17:05 | 44.82958 | -67.47465 | 7531 ft | 135 kts | 104° |
| 2026-05-05 17:05 | 44.82931 | -67.46145 | 7525 ft | 134 kts | 104° |
| 2026-05-05 17:05 | 44.82906 | -67.44830 | 7531 ft | 134 kts | 104° |
| 2026-05-05 17:05 | 44.82881 | -67.43512 | 7518 ft | 134 kts | 104° |
| 2026-05-05 17:06 | 44.82858 | -67.42196 | 7536 ft | 135 kts | 104° |
| 2026-05-05 17:06 | 44.82831 | -67.40890 | 7525 ft | 135 kts | 104° |
| 2026-05-05 17:06 | 44.82804 | -67.39565 | 7533 ft | 135 kts | 104° |
| 2026-05-05 17:06 | 44.82778 | -67.38240 | 7532 ft | 135 kts | 104° |
| 2026-05-05 17:07 | 44.82753 | -67.36922 | 7528 ft | 135 kts | 104° |
| 2026-05-05 17:07 | 44.82728 | -67.35603 | 7531 ft | 134 kts | 104° |
| 2026-05-05 17:07 | 44.82701 | -67.34288 | 7531 ft | 134 kts | 104° |
| 2026-05-05 17:07 | 44.82676 | -67.32975 | 7532 ft | 134 kts | 104° |
| 2026-05-05 17:08 | 44.82649 | -67.31661 | 7531 ft | 134 kts | 104° |
| 2026-05-05 17:08 | 44.82623 | -67.30348 | 7536 ft | 134 kts | 104° |
| 2026-05-05 17:08 | 44.82598 | -67.29032 | 7529 ft | 134 kts | 104° |
| 2026-05-05 17:08 | 44.82569 | -67.27723 | 7526 ft | 132 kts | 107° |
| 2026-05-05 17:09 | 44.82461 | -67.26452 | 7518 ft | 130 kts | 112° |
| 2026-05-05 17:09 | 44.82324 | -67.25196 | 7527 ft | 130 kts | 113° |
| 2026-05-05 17:09 | 44.82180 | -67.23944 | 7533 ft | 129 kts | 114° |
| 2026-05-05 17:09 | 44.82033 | -67.22690 | 7530 ft | 130 kts | 114° |
| 2026-05-05 17:10 | 44.81885 | -67.21439 | 7535 ft | 130 kts | 114° |
| 2026-05-05 17:10 | 44.81737 | -67.20199 | 7533 ft | 130 kts | 114° |
| 2026-05-05 17:10 | 44.81591 | -67.18948 | 7525 ft | 129 kts | 114° |
| 2026-05-05 17:10 | 44.81444 | -67.17697 | 7534 ft | 129 kts | 114° |
| 2026-05-05 17:11 | 44.81293 | -67.16454 | 7537 ft | 129 kts | 114° |
| 2026-05-05 17:11 | 44.81148 | -67.15216 | 7537 ft | 128 kts | 114° |
| 2026-05-05 17:11 | 44.81001 | -67.13978 | 7544 ft | 129 kts | 114° |
| 2026-05-05 17:11 | 44.80847 | -67.12723 | 7540 ft | 130 kts | 114° |
| 2026-05-05 17:12 | 44.80695 | -67.11466 | 7540 ft | 130 kts | 114° |
| 2026-05-05 17:12 | 44.80542 | -67.10208 | 7544 ft | 130 kts | 114° |
| 2026-05-05 17:12 | 44.80391 | -67.08957 | 7524 ft | 130 kts | 114° |
| 2026-05-05 17:12 | 44.80243 | -67.07722 | 7538 ft | 129 kts | 114° |
| 2026-05-05 17:13 | 44.80094 | -67.06477 | 7541 ft | 129 kts | 114° |
| 2026-05-05 17:13 | 44.79942 | -67.05223 | 7539 ft | 130 kts | 114° |
| 2026-05-05 17:13 | 44.79789 | -67.03970 | 7538 ft | 130 kts | 114° |
| 2026-05-05 17:13 | 44.79629 | -67.02717 | 7536 ft | 128 kts | 116° |
| 2026-05-05 17:14 | 44.79389 | -67.01527 | 7537 ft | 125 kts | 123° |
| 2026-05-05 17:14 | 44.79124 | -67.00365 | 7541 ft | 125 kts | 124° |
| 2026-05-05 17:14 | 44.78849 | -66.99204 | 7540 ft | 125 kts | 125° |
| 2026-05-05 17:14 | 44.78572 | -66.98051 | 7539 ft | 123 kts | 125° |
| 2026-05-05 17:15 | 44.78301 | -66.96910 | 7543 ft | 123 kts | 125° |
| 2026-05-05 17:15 | 44.78028 | -66.95770 | 7543 ft | 123 kts | 125° |
| 2026-05-05 17:15 | 44.77752 | -66.94629 | 7542 ft | 123 kts | 125° |
| 2026-05-05 17:15 | 44.77473 | -66.93484 | 7541 ft | 123 kts | 125° |
| 2026-05-05 17:16 | 44.77189 | -66.92342 | 7540 ft | 124 kts | 125° |
| 2026-05-05 17:16 | 44.76908 | -66.91216 | 7543 ft | 123 kts | 125° |
| 2026-05-05 17:16 | 44.76626 | -66.90079 | 7549 ft | 124 kts | 125° |
| 2026-05-05 17:16 | 44.76339 | -66.88934 | 7551 ft | 124 kts | 125° |
| 2026-05-05 17:17 | 44.76048 | -66.87781 | 7551 ft | 125 kts | 125° |
| 2026-05-05 17:17 | 44.75756 | -66.86624 | 7551 ft | 126 kts | 125° |
| 2026-05-05 17:17 | 44.75468 | -66.85473 | 7570 ft | 123 kts | 125° |
| 2026-05-05 17:17 | 44.75185 | -66.84337 | 7578 ft | 123 kts | 125° |
| 2026-05-05 17:18 | 44.74897 | -66.83195 | 7593 ft | 125 kts | 125° |
| 2026-05-05 17:18 | 44.74602 | -66.82045 | 7582 ft | 125 kts | 125° |
| 2026-05-05 17:18 | 44.74306 | -66.80890 | 7579 ft | 125 kts | 125° |
| 2026-05-05 17:18 | 44.73994 | -66.79764 | 7577 ft | 119 kts | 135° |
| 2026-05-05 17:19 | 44.73483 | -66.79004 | 7575 ft | 101 kts | 163° |
| 2026-05-05 17:19 | 44.72896 | -66.78507 | 7586 ft | 96 kts | 171° |
| 2026-05-05 17:19 | 44.72288 | -66.78155 | 7589 ft | 94 kts | 176° |
| 2026-05-05 17:19 | 44.71669 | -66.77854 | 7595 ft | 94 kts | 179° |
| 2026-05-05 17:20 | 44.71041 | -66.77568 | 7587 ft | 95 kts | 179° |
| 2026-05-05 17:20 | 44.70415 | -66.77255 | 7582 ft | 97 kts | 174° |
| 2026-05-05 17:20 | 44.69803 | -66.76847 | 7588 ft | 98 kts | 170° |
| 2026-05-05 17:20 | 44.69200 | -66.76385 | 7592 ft | 100 kts | 168° |
| 2026-05-05 17:21 | 44.68603 | -66.75891 | 7597 ft | 102 kts | 167° |
| 2026-05-05 17:21 | 44.67995 | -66.75368 | 7597 ft | 103 kts | 166° |
| 2026-05-05 17:21 | 44.67389 | -66.74837 | 7590 ft | 102 kts | 165° |
| 2026-05-05 17:22 | 44.66196 | -66.73765 | 7596 ft | 102 kts | 165° |
| 2026-05-05 17:22 | 44.65597 | -66.73222 | 7602 ft | 103 kts | 165° |
| 2026-05-05 17:22 | 44.64989 | -66.72676 | 7597 ft | 104 kts | 165° |
| 2026-05-05 17:22 | 44.64375 | -66.72127 | 7600 ft | 105 kts | 165° |
| 2026-05-05 17:23 | 44.63765 | -66.71581 | 7589 ft | 104 kts | 165° |
| 2026-05-05 17:23 | 44.63156 | -66.71038 | 7591 ft | 103 kts | 165° |
| 2026-05-05 17:23 | 44.62549 | -66.70497 | 7593 ft | 103 kts | 165° |
| 2026-05-05 17:23 | 44.61937 | -66.69957 | 7595 ft | 104 kts | 165° |
| 2026-05-05 17:24 | 44.61325 | -66.69422 | 7596 ft | 103 kts | 165° |
| 2026-05-05 17:24 | 44.60724 | -66.68895 | 7596 ft | 103 kts | 165° |
| 2026-05-05 17:24 | 44.60123 | -66.68367 | 7598 ft | 102 kts | 165° |
| 2026-05-05 17:24 | 44.59525 | -66.67838 | 7600 ft | 101 kts | 165° |
| 2026-05-05 17:25 | 44.58930 | -66.67311 | 7600 ft | 101 kts | 165° |
| 2026-05-05 17:25 | 44.58529 | -66.66957 | 7601 ft | 101 kts | 165° |
| 2026-05-05 17:25 | 44.57744 | -66.66266 | 7603 ft | 101 kts | 165° |
| 2026-05-05 17:25 | 44.57148 | -66.65744 | 7604 ft | 101 kts | 165° |
| 2026-05-05 17:26 | 44.56547 | -66.65222 | 7604 ft | 101 kts | 165° |
| 2026-05-05 17:26 | 44.55949 | -66.64701 | 7603 ft | 101 kts | 165° |
| 2026-05-05 17:26 | 44.55352 | -66.64184 | 7602 ft | 101 kts | 165° |
| 2026-05-05 17:26 | 44.54758 | -66.63667 | 7603 ft | 100 kts | 165° |
| 2026-05-05 17:27 | 44.54167 | -66.63158 | 7570 ft | 103 kts | 165° |
| 2026-05-05 17:27 | 44.53531 | -66.62630 | 7489 ft | 107 kts | 165° |
| 2026-05-05 17:27 | 44.52894 | -66.62097 | 7451 ft | 106 kts | 165° |
| 2026-05-05 17:27 | 44.52267 | -66.61563 | 7436 ft | 104 kts | 165° |
| 2026-05-05 17:28 | 44.51656 | -66.61033 | 7426 ft | 102 kts | 165° |
| 2026-05-05 17:28 | 44.51053 | -66.60505 | 7425 ft | 102 kts | 165° |
| 2026-05-05 17:28 | 44.50458 | -66.59979 | 7425 ft | 100 kts | 165° |
| 2026-05-05 17:28 | 44.49869 | -66.59459 | 7427 ft | 100 kts | 165° |
| 2026-05-05 17:29 | 44.49281 | -66.58941 | 7428 ft | 100 kts | 165° |
| 2026-05-05 17:29 | 44.48698 | -66.58431 | 7420 ft | 100 kts | 165° |
| 2026-05-05 17:29 | 44.48107 | -66.57914 | 7422 ft | 100 kts | 165° |
| 2026-05-05 17:29 | 44.47515 | -66.57402 | 7424 ft | 100 kts | 165° |
| 2026-05-05 17:30 | 44.46924 | -66.56892 | 7424 ft | 99 kts | 165° |
| 2026-05-05 17:30 | 44.46339 | -66.56385 | 7426 ft | 99 kts | 165° |
| 2026-05-05 17:30 | 44.45756 | -66.55876 | 7434 ft | 98 kts | 165° |
| 2026-05-05 17:30 | 44.45174 | -66.55369 | 7440 ft | 98 kts | 165° |
| 2026-05-05 17:31 | 44.44590 | -66.54860 | 7442 ft | 99 kts | 165° |
| 2026-05-05 17:31 | 44.44005 | -66.54353 | 7443 ft | 99 kts | 165° |
| 2026-05-05 17:31 | 44.43415 | -66.53846 | 7444 ft | 100 kts | 165° |
| 2026-05-05 17:31 | 44.42819 | -66.53335 | 7445 ft | 101 kts | 165° |
| 2026-05-05 17:32 | 44.42214 | -66.52820 | 7446 ft | 103 kts | 165° |
| 2026-05-05 17:32 | 44.41612 | -66.52313 | 7446 ft | 102 kts | 165° |
| 2026-05-05 17:32 | 44.41002 | -66.51800 | 7446 ft | 102 kts | 165° |
| 2026-05-05 17:32 | 44.40393 | -66.51291 | 7443 ft | 102 kts | 165° |
| 2026-05-05 17:33 | 44.39783 | -66.50781 | 7436 ft | 102 kts | 165° |
| 2026-05-05 17:33 | 44.39172 | -66.50272 | 7433 ft | 102 kts | 165° |
| 2026-05-05 17:33 | 44.38566 | -66.49765 | 7436 ft | 101 kts | 165° |
| 2026-05-05 17:33 | 44.37963 | -66.49262 | 7438 ft | 100 kts | 165° |
| 2026-05-05 17:34 | 44.37568 | -66.48933 | 7439 ft | 99 kts | 165° |
| 2026-05-05 17:34 | 44.36971 | -66.48437 | 7440 ft | 100 kts | 165° |
| 2026-05-05 17:34 | 44.36188 | -66.47780 | 7441 ft | 99 kts | 165° |
| 2026-05-05 17:34 | 44.35599 | -66.47286 | 7443 ft | 99 kts | 165° |
| 2026-05-05 17:35 | 44.35207 | -66.46956 | 7445 ft | 99 kts | 165° |
| 2026-05-05 17:35 | 44.34613 | -66.46456 | 7447 ft | 100 kts | 165° |
| 2026-05-05 17:35 | 44.34012 | -66.45958 | 7447 ft | 101 kts | 165° |
| 2026-05-05 17:35 | 44.33406 | -66.45459 | 7446 ft | 101 kts | 165° |
| 2026-05-05 17:36 | 44.32798 | -66.44959 | 7446 ft | 102 kts | 165° |
| 2026-05-05 17:36 | 44.32188 | -66.44455 | 7451 ft | 102 kts | 165° |
| 2026-05-05 17:36 | 44.31579 | -66.43949 | 7451 ft | 102 kts | 165° |
| 2026-05-05 17:36 | 44.30967 | -66.43449 | 7451 ft | 102 kts | 165° |
| 2026-05-05 17:37 | 44.30356 | -66.42950 | 7449 ft | 102 kts | 165° |
| 2026-05-05 17:37 | 44.29745 | -66.42451 | 7447 ft | 101 kts | 165° |
| 2026-05-05 17:37 | 44.29147 | -66.41960 | 7448 ft | 101 kts | 165° |
| 2026-05-05 17:37 | 44.28544 | -66.41463 | 7450 ft | 101 kts | 165° |
| 2026-05-05 17:38 | 44.27943 | -66.40968 | 7452 ft | 100 kts | 165° |
| 2026-05-05 17:38 | 44.27392 | -66.40494 | 7296 ft | 88 kts | 165° |
| 2026-05-05 17:38 | 44.26867 | -66.40083 | 6974 ft | 86 kts | 174° |
| 2026-05-05 17:38 | 44.26346 | -66.40059 | 6661 ft | 71 kts | 213° |
| 2026-05-05 17:39 | 44.26089 | -66.40616 | 6380 ft | 69 kts | 250° |
| 2026-05-05 17:39 | 44.26156 | -66.41260 | 6244 ft | 67 kts | 275° |
| 2026-05-05 17:39 | 44.26533 | -66.41753 | 6037 ft | 87 kts | 315° |
| 2026-05-05 17:39 | 44.27212 | -66.41790 | 5822 ft | 105 kts | 0° |
| 2026-05-05 17:40 | 44.27905 | -66.41377 | 5616 ft | 111 kts | 23° |
| 2026-05-05 17:40 | 44.28539 | -66.40769 | 5406 ft | 110 kts | 30° |
| 2026-05-05 17:40 | 44.29127 | -66.40086 | 5223 ft | 110 kts | 49° |
| 2026-05-05 17:40 | 44.29539 | -66.39218 | 5039 ft | 108 kts | 70° |
| 2026-05-05 17:41 | 44.29815 | -66.38270 | 4871 ft | 104 kts | 78° |
| 2026-05-05 17:41 | 44.30014 | -66.37307 | 4673 ft | 102 kts | 88° |
| 2026-05-05 17:41 | 44.30172 | -66.36339 | 4459 ft | 105 kts | 85° |
| 2026-05-05 17:41 | 44.30228 | -66.35379 | 4242 ft | 93 kts | 118° |
| 2026-05-05 17:42 | 44.29998 | -66.34660 | 4005 ft | 70 kts | 150° |
| 2026-05-05 17:42 | 44.29641 | -66.34307 | 3667 ft | 59 kts | 179° |
| 2026-05-05 17:42 | 44.29250 | -66.34223 | 3297 ft | 56 kts | 197° |
| 2026-05-05 17:42 | 44.28880 | -66.34307 | 2957 ft | 52 kts | 206° |
| 2026-05-05 17:43 | 44.28537 | -66.34487 | 2608 ft | 54 kts | 211° |
| 2026-05-05 17:43 | 44.28195 | -66.34727 | 2223 ft | 57 kts | 212° |
| 2026-05-05 17:43 | 44.27825 | -66.34949 | 1847 ft | 60 kts | 206° |
| 2026-05-05 17:43 | 44.27430 | -66.35143 | 1487 ft | 60 kts | 202° |
| 2026-05-05 17:44 | 44.27020 | -66.35359 | 1121 ft | 66 kts | 203° |
| 2026-05-05 17:44 | 44.26589 | -66.35551 | 749 ft | 65 kts | 211° |
| 2026-05-05 17:44 | 44.26163 | -66.35759 | 337 ft | 67 kts | 215° |
| 2026-05-05 17:44 | 44.25726 | -66.35962 | 52 ft | 57 kts | 200° |
| 2026-05-05 17:45 | 44.25422 | -66.36107 | 31 ft | 33 kts | 199° |
| 2026-05-05 17:45 | 44.25342 | -66.36155 | 29 ft | 5 kts | 227° |
| 2026-05-05 17:45 | 44.25341 | -66.36143 | 29 ft | 0 kts | 8° |
| 2026-05-05 17:46 | 44.25351 | -66.36140 | 29 ft | 7 kts | 15° |
| 2026-05-05 17:46 | 44.25434 | -66.36101 | 32 ft | 15 kts | 19° |
| 2026-05-05 17:46 | 44.25534 | -66.36053 | 36 ft | 16 kts | 20° |
| 2026-05-05 17:46 | 44.25640 | -66.36002 | 41 ft | 16 kts | 19° |
| 2026-05-05 17:47 | 44.25737 | -66.35957 | 49 ft | 13 kts | 19° |
| 2026-05-05 17:47 | 44.25822 | -66.35917 | 54 ft | 13 kts | 18° |
| 2026-05-05 17:47 | 44.25909 | -66.35875 | 53 ft | 13 kts | 19° |
| 2026-05-05 17:47 | 44.25984 | -66.35839 | 58 ft | 10 kts | 17° |
| 2026-05-05 17:48 | 44.26027 | -66.35817 | 64 ft | 4 kts | 33° |
| 2026-05-05 17:48 | 44.26046 | -66.35825 | 65 ft | 4 kts | 297° |
| 2026-05-05 17:48 | 44.26047 | -66.35848 | 65 ft | 1 kts | 207° |
| 2026-05-05 17:48 | 44.26042 | -66.35844 | 65 ft | 1 kts | 108° |